Terminal Aerodrome Forecast
Issued by NWS

Home | Current Version | Previous Version | Graphics & Text | Print | Product List | Glossary On
Versions: 1 2 3 4 5 6 7 8 9 10 11 12 13 14 15 16 17 18 19 20 21 22 23 24
000
FTUS43 KABR 230439 AAC
TAFMBG
TAF AMD
KMBG 230439Z 2305/2324 35012KT P6SM VCSH OVC010
     FM230900 36008KT P6SM OVC020
     FM231100 35008KT P6SM VCSH OVC015
     FM231300 36010KT P6SM OVC008
     FM231700 01010G17KT P6SM OVC020
     FM231800 02010KT P6SM -SHRA OVC025=

USA.gov is the U.S. government's official web portal to all federal, state and local government web resources and services.